createdAt,value
2017-05-28T00:02:15.000Z,26.73
2017-05-28T00:12:15.000Z,26.7
2017-05-28T00:22:15.000Z,26.67
2017-05-28T00:32:15.000Z,26.66
2017-05-28T00:42:15.000Z,26.62
2017-05-28T00:52:15.000Z,26.58
2017-05-28T01:02:15.000Z,26.56
2017-05-28T01:12:15.000Z,26.51
2017-05-28T01:22:15.000Z,26.47
2017-05-28T01:32:16.000Z,26.46
2017-05-28T01:42:15.000Z,26.43
2017-05-28T01:52:15.000Z,26.41
2017-05-28T02:02:15.000Z,26.38
2017-05-28T02:12:16.000Z,26.34
2017-05-28T02:22:16.000Z,26.29
2017-05-28T02:32:16.000Z,26.27
2017-05-28T02:42:16.000Z,26.23
2017-05-28T02:52:16.000Z,26.16
2017-05-28T03:02:16.000Z,26.15
2017-05-28T03:12:16.000Z,26.13
2017-05-28T03:22:16.000Z,26.11
2017-05-28T03:32:16.000Z,26.06
2017-05-28T03:42:16.000Z,26.05
2017-05-28T03:52:16.000Z,26.05
2017-05-28T04:02:16.000Z,26.02
2017-05-28T04:12:16.000Z,26
2017-05-28T04:22:16.000Z,25.97
2017-05-28T04:32:16.000Z,25.94
2017-05-28T04:42:16.000Z,25.91
2017-05-28T04:52:16.000Z,25.9
2017-05-28T05:02:16.000Z,25.88
2017-05-28T05:12:16.000Z,25.87
2017-05-28T05:22:17.000Z,25.85
2017-05-28T05:32:16.000Z,25.84
2017-05-28T05:42:16.000Z,25.83
2017-05-28T05:52:16.000Z,25.8
2017-05-28T06:02:16.000Z,25.79
2017-05-28T06:12:16.000Z,25.81
2017-05-28T06:22:16.000Z,25.8
2017-05-28T06:32:16.000Z,25.78
2017-05-28T06:42:16.000Z,25.73
2017-05-28T06:52:16.000Z,25.71
2017-05-28T07:02:16.000Z,25.69
2017-05-28T07:12:16.000Z,25.74
2017-05-28T07:22:16.000Z,25.76
2017-05-28T07:32:16.000Z,25.77
2017-05-28T07:42:16.000Z,25.87
2017-05-28T07:52:16.000Z,26.03
2017-05-28T08:02:16.000Z,26.16
2017-05-28T08:12:16.000Z,26.25
2017-05-28T08:22:16.000Z,26.34
2017-05-28T08:32:16.000Z,26.47
2017-05-28T08:42:16.000Z,26.55
2017-05-28T08:52:16.000Z,26.66
2017-05-28T09:02:16.000Z,26.69
2017-05-28T09:12:16.000Z,26.78
2017-05-28T09:22:16.000Z,26.9
2017-05-28T09:32:16.000Z,26.93
2017-05-28T09:42:16.000Z,26.98
2017-05-28T09:52:16.000Z,26.99
2017-05-28T10:02:16.000Z,26.91
2017-05-28T10:12:16.000Z,26.9
2017-05-28T10:22:16.000Z,26.97
2017-05-28T10:32:16.000Z,27.07
2017-05-28T10:42:17.000Z,27.07
2017-05-28T10:52:17.000Z,27.05
2017-05-28T11:02:17.000Z,27.11
2017-05-28T11:12:17.000Z,27.12
2017-05-28T11:22:17.000Z,27.16
2017-05-28T11:32:17.000Z,27.4
2017-05-28T11:42:17.000Z,27.31
2017-05-28T11:52:17.000Z,27.43
2017-05-28T12:02:17.000Z,27.65
2017-05-28T12:12:17.000Z,27.67
2017-05-28T12:22:17.000Z,27.71
2017-05-28T12:32:17.000Z,27.77
2017-05-28T12:42:17.000Z,27.82
2017-05-28T12:52:17.000Z,27.82
2017-05-28T13:02:17.000Z,28.17
2017-05-28T13:12:17.000Z,27.91
2017-05-28T13:22:17.000Z,27.94
2017-05-28T13:32:18.000Z,27.97
2017-05-28T13:42:17.000Z,27.95
2017-05-28T13:52:17.000Z,27.9
2017-05-28T14:02:17.000Z,27.91
2017-05-28T14:12:17.000Z,27.9
2017-05-28T14:22:17.000Z,27.86
2017-05-28T14:32:17.000Z,27.88
2017-05-28T14:42:17.000Z,27.88
2017-05-28T14:52:17.000Z,27.84
2017-05-28T15:02:17.000Z,27.87
2017-05-28T15:12:17.000Z,27.88
2017-05-28T15:22:17.000Z,27.88
2017-05-28T15:32:17.000Z,27.87
2017-05-28T15:42:17.000Z,27.88
2017-05-28T15:52:17.000Z,27.89
2017-05-28T16:02:17.000Z,27.9
2017-05-28T16:12:17.000Z,27.89
2017-05-28T16:22:17.000Z,27.89
2017-05-28T16:32:17.000Z,27.89
2017-05-28T16:42:17.000Z,27.89
2017-05-28T16:52:17.000Z,27.91
2017-05-28T17:02:17.000Z,27.94
2017-05-28T17:12:17.000Z,27.97
2017-05-28T17:22:17.000Z,28.02
2017-05-28T17:32:18.000Z,27.98
2017-05-28T17:42:17.000Z,27.97
2017-05-28T17:52:17.000Z,27.94
2017-05-28T18:02:17.000Z,27.9
2017-05-28T18:12:17.000Z,27.84
2017-05-28T18:22:17.000Z,27.84
2017-05-28T18:32:17.000Z,27.84
2017-05-28T18:42:17.000Z,27.82
2017-05-28T18:52:18.000Z,27.79
2017-05-28T19:02:18.000Z,27.76
2017-05-28T19:12:18.000Z,27.75
2017-05-28T19:22:18.000Z,27.71
2017-05-28T19:32:19.000Z,27.68
2017-05-28T19:42:18.000Z,27.65
2017-05-28T19:52:18.000Z,27.64
2017-05-28T20:02:18.000Z,27.62
2017-05-28T20:12:18.000Z,27.61
2017-05-28T20:32:18.000Z,27.53
2017-05-28T20:52:18.000Z,27.51
2017-05-28T21:02:18.000Z,27.46
2017-05-28T21:12:18.000Z,27.39
2017-05-28T21:32:18.000Z,27.35
2017-05-28T21:52:18.000Z,27.26
2017-05-28T22:02:18.000Z,27.26
2017-05-28T22:12:18.000Z,27.22
2017-05-28T22:32:18.000Z,27.14
2017-05-28T22:52:22.000Z,27.04
2017-05-28T23:12:18.000Z,26.95
2017-05-28T23:32:18.000Z,26.93
2017-05-28T23:52:18.000Z,26.87
